Time;durP1;ratioP1;P1;durP2;ratioP2;P2;SDS_P1;SDS_P2;PMS_P1;PMS_P2;Temp;Humidity;BMP_temperature;BMP_pressure;BME280_temperature;BME280_humidity;BME280_pressure;Samples;Min_cycle;Max_cycle;Signal;HPM_P1;HPM_P2
2022/05/25 00:00:14;;;;;;;7.45;4.30;;;;;;;9.68;100.00;101089.44;4988843;28;20346;-79
2022/05/25 00:02:40;;;;;;;6.47;4.20;;;;;;;9.69;100.00;101085.03;5030965;28;20124;-79
2022/05/25 00:05:08;;;;;;;7.65;4.85;;;;;;;9.70;100.00;101089.41;5015414;28;20482;-80
2022/05/25 00:07:34;;;;;;;6.15;4.50;;;;;;;9.71;100.00;101091.13;5033464;28;20392;-79
2022/05/25 00:09:59;;;;;;;5.75;4.47;;;;;;;9.71;100.00;101093.75;5012941;28;20098;-79
2022/05/25 00:12:25;;;;;;;6.50;4.85;;;;;;;9.72;100.00;101091.06;5012859;28;20033;-79
2022/05/25 00:14:50;;;;;;;7.93;4.57;;;;;;;9.74;100.00;101088.34;5019882;28;20403;-79
2022/05/25 00:17:16;;;;;;;7.68;4.78;;;;;;;9.74;100.00;101085.69;5015387;28;20155;-80
2022/05/25 00:20:00;;;;;;;6.43;4.93;;;;;;;9.72;100.00;101092.84;5006041;28;20490;-80
2022/05/25 00:22:46;;;;;;;6.55;4.72;;;;;;;9.72;100.00;101090.19;5019102;28;20682;-80
2022/05/25 00:25:21;;;;;;;7.10;4.88;;;;;;;9.71;100.00;101093.75;5031230;28;20049;-80
2022/05/25 00:27:47;;;;;;;7.32;4.88;;;;;;;9.71;100.00;101099.03;5013725;28;20033;-80
2022/05/25 00:30:14;;;;;;;6.80;4.90;;;;;;;9.71;100.00;101097.28;5014816;28;20029;-79
2022/05/25 00:32:41;;;;;;;9.23;5.57;;;;;;;9.71;100.00;101104.34;4998927;28;20108;-80
2022/05/25 00:35:12;;;;;;;7.10;5.03;;;;;;;9.71;100.00;101102.56;5013199;28;20041;-79
2022/05/25 00:37:39;;;;;;;9.18;5.68;;;;;;;9.69;100.00;101108.81;5014061;28;20033;-79
2022/05/25 00:40:06;;;;;;;9.30;5.32;;;;;;;9.67;100.00;101105.34;5005599;28;20583;-80
2022/05/25 00:42:31;;;;;;;9.18;6.05;;;;;;;9.68;100.00;101107.94;4987944;28;20098;-79
2022/05/25 00:44:57;;;;;;;9.38;5.63;;;;;;;9.64;100.00;101109.84;5014523;28;20041;-79
2022/05/25 00:47:24;;;;;;;12.25;5.85;;;;;;;9.62;100.00;101111.69;5013364;28;20032;-79
2022/05/25 00:49:49;;;;;;;11.05;5.97;;;;;;;9.62;100.00;101118.75;5013692;28;20055;-80
2022/05/25 00:52:15;;;;;;;9.25;6.32;;;;;;;9.60;100.00;101113.50;5029640;28;20495;-79
2022/05/25 00:54:45;;;;;;;7.80;5.88;;;;;;;9.58;100.00;101114.50;5029289;28;20035;-80
2022/05/25 00:57:15;;;;;;;8.82;5.55;;;;;;;9.54;100.00;101108.47;5029904;28;20523;-78
2022/05/25 00:59:46;;;;;;;9.20;5.88;;;;;;;9.53;100.00;101114.66;5021724;28;20033;-78
2022/05/25 01:02:11;;;;;;;9.00;5.70;;;;;;;9.52;100.00;101110.31;5028355;28;21692;-78
2022/05/25 01:04:37;;;;;;;8.18;5.25;;;;;;;9.51;100.00;101113.88;4997398;28;20071;-78
2022/05/25 01:07:36;;;;;;;9.20;4.93;;;;;;;9.48;100.00;101114.84;5030494;28;20061;-78
2022/05/25 01:10:17;;;;;;;8.25;5.18;;;;;;;9.47;100.00;101107.81;5021180;28;20036;-77
2022/05/25 01:12:58;;;;;;;7.35;5.40;;;;;;;9.45;100.00;101098.22;5014633;28;20284;-77
2022/05/25 01:15:33;;;;;;;9.90;5.43;;;;;;;9.43;100.00;101100.06;5030112;28;20037;-78
2022/05/25 01:18:17;;;;;;;8.63;5.18;;;;;;;9.40;100.00;101106.34;5031579;28;20048;-77
2022/05/25 01:20:54;;;;;;;8.65;5.22;;;;;;;9.41;100.00;101105.41;5030931;28;20045;-78
2022/05/25 01:23:58;;;;;;;10.38;4.93;;;;;;;9.40;100.00;101108.09;5028420;28;20037;-78
2022/05/25 01:26:41;;;;;;;7.72;5.10;;;;;;;9.36;100.00;101115.28;5028860;28;20356;-78
2022/05/25 01:29:36;;;;;;;8.38;4.80;;;;;;;9.34;100.00;101109.19;5031014;28;20028;-78
2022/05/25 01:32:06;;;;;;;7.88;4.60;;;;;;;9.33;100.00;101113.59;5029541;28;20043;-78
2022/05/25 01:34:35;;;;;;;7.70;4.78;;;;;;;9.30;100.00;101116.38;5009486;28;20060;-77
2022/05/25 01:37:19;;;;;;;7.45;4.90;;;;;;;9.28;100.00;101118.22;5012934;28;20064;-78
2022/05/25 01:39:55;;;;;;;7.68;4.30;;;;;;;9.26;100.00;101117.38;5012619;28;20068;-77
2022/05/25 01:42:43;;;;;;;6.97;4.38;;;;;;;9.24;100.00;101122.75;4998558;28;20036;-78
2022/05/25 01:45:10;;;;;;;9.68;4.28;;;;;;;9.21;100.00;101117.56;5013157;28;20098;-78
2022/05/25 01:47:38;;;;;;;6.50;4.75;;;;;;;9.20;100.00;101120.25;5009857;28;20359;-79
2022/05/25 01:50:13;;;;;;;7.95;4.65;;;;;;;9.22;100.00;101123.72;5013222;28;20752;-78
2022/05/25 01:52:45;;;;;;;8.05;5.05;;;;;;;9.21;100.00;101127.28;5031901;28;20134;-78
2022/05/25 01:55:41;;;;;;;5.70;4.33;;;;;;;9.24;100.00;101128.03;5007975;28;20368;-78
2022/05/25 01:58:10;;;;;;;7.45;4.30;;;;;;;9.23;100.00;101122.78;4993895;28;20270;-79
2022/05/25 02:00:42;;;;;;;6.80;4.57;;;;;;;9.23;100.00;101128.06;5012824;28;20024;-78
2022/05/25 02:06:27;;;;;;;9.38;4.30;;;;;;;9.24;100.00;101138.59;5017849;28;20084;-78
2022/05/25 02:09:19;;;;;;;7.97;4.60;;;;;;;9.24;100.00;101132.44;4998045;28;20040;-79
2022/05/25 02:11:47;;;;;;;7.80;4.78;;;;;;;9.23;100.00;101136.00;5014827;28;20025;-79
2022/05/25 02:14:50;;;;;;;9.95;4.15;;;;;;;9.22;100.00;101134.28;5026838;28;20645;-79
2022/05/25 02:17:45;;;;;;;7.22;4.60;;;;;;;9.21;100.00;101127.28;5028834;28;20040;-79
2022/05/25 02:20:29;;;;;;;9.98;4.70;;;;;;;9.18;100.00;101128.25;5005055;28;20095;-79
2022/05/25 02:23:00;;;;;;;8.20;4.35;;;;;;;9.16;100.00;101123.91;5029170;28;20623;-79
2022/05/25 02:25:32;;;;;;;5.47;3.88;;;;;;;9.16;100.00;101134.50;4979642;28;20033;-77
2022/05/25 02:28:04;;;;;;;8.20;4.25;;;;;;;9.14;100.00;101133.69;5029100;28;20029;-79
2022/05/25 02:30:31;;;;;;;13.00;4.57;;;;;;;9.13;100.00;101131.94;5009926;28;20082;-79
2022/05/25 02:33:02;;;;;;;6.07;3.95;;;;;;;9.08;100.00;101127.69;5011284;28;20532;-78
2022/05/25 02:35:27;;;;;;;6.90;4.18;;;;;;;9.08;100.00;101138.25;5032092;28;20166;-79
2022/05/25 02:37:57;;;;;;;6.30;4.35;;;;;;;9.07;100.00;101135.66;4994320;28;20087;-79
2022/05/25 02:40:22;;;;;;;8.70;4.22;;;;;;;9.06;100.00;101132.16;5012040;28;20048;-80
2022/05/25 02:42:48;;;;;;;5.57;3.88;;;;;;;9.04;100.00;101131.34;5015249;28;20086;-79
2022/05/25 02:45:13;;;;;;;5.13;3.83;;;;;;;9.02;100.00;101137.59;5002354;28;20035;-79
2022/05/25 02:47:40;;;;;;;7.80;3.97;;;;;;;9.01;100.00;101131.47;5025591;28;20104;-79
2022/05/25 02:50:06;;;;;;;4.97;3.80;;;;;;;9.00;100.00;101135.03;5010119;28;20029;-79
2022/05/25 02:52:32;;;;;;;6.78;3.90;;;;;;;8.99;100.00;101135.91;5011406;28;20047;-79
2022/05/25 02:54:57;;;;;;;6.93;3.60;;;;;;;8.95;100.00;101136.97;5010433;28;20037;-79
2022/05/25 02:57:23;;;;;;;6.50;3.58;;;;;;;8.94;100.00;101135.22;5026134;28;20037;-80
2022/05/25 02:59:48;;;;;;;4.82;3.22;;;;;;;8.94;100.00;101135.22;5011097;28;20503;-79
2022/05/25 03:02:14;;;;;;;8.00;3.88;;;;;;;8.93;100.00;101138.78;5034415;28;20056;-79
2022/05/25 03:04:40;;;;;;;8.05;4.28;;;;;;;8.94;100.00;101140.50;5032755;28;20072;-79
2022/05/25 03:07:07;;;;;;;7.65;4.00;;;;;;;8.95;100.00;101147.53;5016763;28;20044;-79
2022/05/25 03:09:37;;;;;;;6.55;3.70;;;;;;;8.95;100.00;101145.72;5016399;28;20037;-79
2022/05/25 03:12:04;;;;;;;5.97;4.18;;;;;;;8.95;100.00;101148.38;5010982;28;20037;-79
2022/05/25 03:14:30;;;;;;;6.80;4.15;;;;;;;8.96;100.00;101150.13;5015507;28;20032;-79
2022/05/25 03:16:55;;;;;;;6.90;4.40;;;;;;;8.98;100.00;101157.97;5032494;28;20266;-79
2022/05/25 03:19:21;;;;;;;5.95;3.42;;;;;;;8.98;100.00;101157.97;5032757;28;20033;-79
2022/05/25 03:21:47;;;;;;;6.03;4.07;;;;;;;8.99;100.00;101166.75;5000523;28;20033;-79
2022/05/25 03:24:14;;;;;;;6.63;4.38;;;;;;;9.03;100.00;101169.25;5033866;28;20557;-79
2022/05/25 03:26:39;;;;;;;7.97;3.78;;;;;;;9.06;100.00;101165.63;5033912;28;20281;-79
2022/05/25 03:29:05;;;;;;;5.32;4.20;;;;;;;9.09;100.00;101169.03;5034860;28;20043;-80
2022/05/25 03:31:31;;;;;;;8.90;4.60;;;;;;;9.08;100.00;101164.69;5014705;28;20453;-79
2022/05/25 03:33:56;;;;;;;6.20;3.83;;;;;;;9.09;100.00;101166.41;5016075;28;20032;-79
2022/05/25 03:36:22;;;;;;;6.85;4.00;;;;;;;9.07;100.00;101168.25;5035046;28;20032;-79
2022/05/25 03:38:48;;;;;;;8.15;3.83;;;;;;;9.05;100.00;101180.59;4998903;28;20546;-79
2022/05/25 03:41:17;;;;;;;6.63;3.38;;;;;;;9.04;100.00;101172.75;5014231;28;20384;-80
2022/05/25 03:43:43;;;;;;;7.03;3.88;;;;;;;9.02;100.00;101170.16;5017128;28;20356;-79
2022/05/25 03:46:09;;;;;;;6.43;3.17;;;;;;;9.01;100.00;101170.19;5014986;28;20523;-80
2022/05/25 03:48:34;;;;;;;5.68;3.72;;;;;;;9.00;100.00;101161.44;5014467;28;20057;-79
2022/05/25 03:51:00;;;;;;;6.63;3.80;;;;;;;8.98;100.00;101168.53;5034851;28;20178;-80
2022/05/25 03:53:27;;;;;;;6.90;3.45;;;;;;;9.00;100.00;101165.84;5015670;28;20044;-79
2022/05/25 03:55:52;;;;;;;7.43;3.58;;;;;;;8.97;100.00;101166.81;5013690;28;20081;-80
2022/05/25 03:58:18;;;;;;;6.05;3.30;;;;;;;8.96;100.00;101165.97;5032465;28;20158;-79
2022/05/25 04:00:44;;;;;;;6.25;3.78;;;;;;;8.95;100.00;101172.13;5023124;28;20112;-79
2022/05/25 04:03:14;;;;;;;7.80;3.38;;;;;;;8.96;100.00;101173.00;5015519;28;20040;-78
2022/05/25 04:05:41;;;;;;;6.75;3.50;;;;;;;8.98;100.00;101175.59;5009450;28;20037;-79
2022/05/25 04:08:07;;;;;;;8.30;3.33;;;;;;;8.96;100.00;101176.53;5023279;28;20027;-80
2022/05/25 04:10:32;;;;;;;6.13;3.58;;;;;;;8.96;100.00;101173.88;5033216;28;20025;-79
2022/05/25 04:12:58;;;;;;;3.90;3.17;;;;;;;8.98;100.00;101184.38;5009053;28;20553;-79
2022/05/25 04:15:26;;;;;;;5.72;3.65;;;;;;;8.98;100.00;101186.16;5013466;28;20086;-79
2022/05/25 04:17:52;;;;;;;4.93;3.03;;;;;;;8.98;100.00;101184.38;5028342;28;20575;-79
2022/05/25 04:20:19;;;;;;;5.60;3.42;;;;;;;8.98;100.00;101187.00;5010400;28;20044;-79
2022/05/25 04:22:44;;;;;;;5.53;3.30;;;;;;;9.02;100.00;101185.13;5011597;28;20044;-80
2022/05/25 04:25:13;;;;;;;4.75;3.00;;;;;;;9.02;100.00;101186.00;5004904;28;20033;-79
2022/05/25 04:27:41;;;;;;;5.72;2.83;;;;;;;9.05;100.00;101191.16;5020945;28;20037;-79
2022/05/25 04:30:09;;;;;;;4.85;3.00;;;;;;;9.07;100.00;101197.28;5009622;28;20038;-79
2022/05/25 04:32:35;;;;;;;7.82;3.22;;;;;;;9.12;100.00;101198.91;5012461;28;20033;-79
2022/05/25 04:35:00;;;;;;;6.75;3.38;;;;;;;9.15;100.00;101196.16;5012368;28;20366;-79
2022/05/25 04:40:11;;;;;;;5.55;3.92;;;;;;;9.24;100.00;101193.19;5014816;28;20049;-78
2022/05/25 04:42:37;;;;;;;4.47;3.03;;;;;;;9.28;100.00;101192.19;4987439;28;20384;-79
2022/05/25 04:45:03;;;;;;;4.10;2.97;;;;;;;9.32;100.00;101190.31;5009776;28;20116;-79
2022/05/25 04:47:31;;;;;;;3.70;2.90;;;;;;;9.37;100.00;101183.94;5028119;28;20048;-80
2022/05/25 04:49:57;;;;;;;6.43;3.13;;;;;;;9.45;100.00;101188.97;5009953;28;20496;-79
2022/05/25 04:52:23;;;;;;;4.97;2.70;;;;;;;9.49;100.00;101180.00;5025204;28;20045;-79
2022/05/25 04:54:48;;;;;;;3.60;2.75;;;;;;;9.58;100.00;101188.53;4993516;28;20025;-79
2022/05/25 04:57:19;;;;;;;4.60;2.92;;;;;;;9.65;100.00;101182.94;5011892;28;20040;-78
2022/05/25 04:59:47;;;;;;;4.32;2.78;;;;;;;9.71;100.00;101183.66;4994517;28;20108;-79
2022/05/25 05:02:12;;;;;;;2.90;2.60;;;;;;;9.80;100.00;101193.88;5010173;28;20521;-79
2022/05/25 05:04:38;;;;;;;5.45;2.65;;;;;;;9.89;100.00;101185.63;5028930;28;20606;-79
2022/05/25 05:07:04;;;;;;;4.93;2.38;;;;;;;10.01;100.00;101186.94;5012347;28;20037;-79
2022/05/25 05:09:33;;;;;;;6.28;2.47;;;;;;;10.11;100.00;101187.47;5012391;28;20032;-79
2022/05/25 05:11:59;;;;;;;3.95;2.63;;;;;;;10.22;100.00;101183.53;5011925;28;20026;-80
2022/05/25 05:14:25;;;;;;;5.03;2.72;;;;;;;10.35;100.00;101186.56;5011444;28;20033;-79
2022/05/25 05:16:57;;;;;;;5.28;2.80;;;;;;;10.49;100.00;101184.28;5011512;28;20286;-79
2022/05/25 05:19:27;;;;;;;2.58;2.35;;;;;;;10.70;100.00;101181.69;5014013;28;20037;-79
2022/05/25 05:21:54;;;;;;;3.28;2.40;;;;;;;10.93;100.00;101186.03;5011112;28;20044;-78
2022/05/25 05:24:22;;;;;;;7.03;2.42;;;;;;;11.21;100.00;101184.88;4994463;28;20345;-76
2022/05/25 05:26:47;;;;;;;4.60;2.17;;;;;;;11.44;100.00;101183.00;5029709;28;20083;-79
2022/05/25 05:29:13;;;;;;;4.05;2.03;;;;;;;11.68;100.00;101185.53;5031520;28;20036;-79
2022/05/25 05:31:39;;;;;;;3.72;1.70;;;;;;;11.88;100.00;101189.06;4996992;28;20830;-79
2022/05/25 05:34:05;;;;;;;4.82;2.00;;;;;;;12.07;100.00;101179.38;5032329;28;20059;-79
2022/05/25 05:36:34;;;;;;;2.03;1.83;;;;;;;12.28;100.00;101186.38;5015328;28;20039;-80
2022/05/25 05:39:08;;;;;;;2.75;1.88;;;;;;;12.45;100.00;101183.81;5033561;28;20025;-79
2022/05/25 05:41:49;;;;;;;3.75;1.80;;;;;;;12.59;100.00;101185.78;5033912;28;20465;-78
2022/05/25 05:44:17;;;;;;;2.40;1.58;;;;;;;12.75;100.00;101185.88;5012926;28;20091;-79
2022/05/25 05:46:44;;;;;;;3.58;1.60;;;;;;;12.92;100.00;101178.91;5022250;28;20102;-78
2022/05/25 05:49:10;;;;;;;3.50;1.60;;;;;;;13.09;100.00;101190.47;4998953;28;20455;-79
2022/05/25 05:51:36;;;;;;;2.38;1.60;;;;;;;13.23;100.00;101179.13;5015111;28;20045;-79
2022/05/25 05:54:02;;;;;;;2.60;1.42;;;;;;;13.39;100.00;101179.19;5014232;28;20082;-79
2022/05/25 05:56:29;;;;;;;1.70;1.20;;;;;;;13.57;100.00;101190.72;5016062;28;20037;-79
2022/05/25 05:58:55;;;;;;;3.60;1.40;;;;;;;13.71;100.00;101190.84;4990239;28;20020;-79
2022/05/25 06:01:21;;;;;;;2.35;1.27;;;;;;;13.82;100.00;101184.06;5023310;28;20031;-79
2022/05/25 06:03:46;;;;;;;1.70;1.27;;;;;;;13.97;100.00;101185.91;5014053;28;20123;-77
2022/05/25 06:06:12;;;;;;;4.00;1.17;;;;;;;14.10;100.00;101188.75;5032114;28;20091;-77
2022/05/25 06:08:37;;;;;;;1.80;1.10;;;;;;;14.24;100.00;101189.78;5034066;28;20068;-77
2022/05/25 06:11:03;;;;;;;2.00;0.90;;;;;;;14.35;100.00;101186.53;5036108;28;20040;-77
2022/05/25 06:13:29;;;;;;;2.15;1.05;;;;;;;14.52;100.00;101188.25;5028598;28;20044;-78
2022/05/25 06:21:23;;;;;;;1.23;1.00;;;;;;;14.88;100.00;101195.09;5028275;28;20067;-77
2022/05/25 06:23:49;;;;;;;2.60;1.17;;;;;;;14.99;98.27;101188.28;5029822;28;20484;-78
2022/05/25 06:26:15;;;;;;;3.13;1.00;;;;;;;15.15;100.00;101190.91;5031872;28;20594;-77
2022/05/25 06:28:44;;;;;;;1.63;1.00;;;;;;;15.23;92.54;101201.09;5030503;28;20168;-77
2022/05/25 06:31:10;;;;;;;1.40;0.80;;;;;;;15.24;93.97;101198.34;5011294;28;20134;-77
2022/05/25 06:33:37;;;;;;;1.15;0.77;;;;;;;15.34;93.63;101202.22;5009236;28;20431;-77
2022/05/25 06:36:22;;;;;;;2.35;1.02;;;;;;;15.42;90.72;101201.72;5030004;28;20395;-79
2022/05/25 06:38:49;;;;;;;1.05;0.77;;;;;;;15.54;93.43;101212.63;5006214;28;20496;-77
2022/05/25 06:41:15;;;;;;;0.80;0.60;;;;;;;15.57;90.38;101213.28;5039231;28;20013;-74
2022/05/25 06:43:41;;;;;;;1.52;0.68;;;;;;;15.63;92.79;101209.38;5016808;28;20037;-75
2022/05/25 06:46:08;;;;;;;0.80;0.80;;;;;;;15.68;92.18;101209.13;5033375;28;20159;-77
2022/05/25 06:48:34;;;;;;;1.23;0.90;;;;;;;15.66;91.05;101209.22;5012923;28;20028;-78
2022/05/25 06:51:15;;;;;;;2.50;1.10;;;;;;;15.75;92.32;101205.13;5030074;28;20399;-78
2022/05/25 06:53:40;;;;;;;1.27;0.80;;;;;;;15.72;90.90;101211.50;5013139;28;20487;-78
2022/05/25 06:56:06;;;;;;;1.70;1.20;;;;;;;15.75;92.09;101207.78;5031814;28;21452;-79
2022/05/25 06:58:34;;;;;;;3.15;1.30;;;;;;;15.96;94.54;101207.44;5031380;28;20032;-81
2022/05/25 07:01:00;;;;;;;1.10;1.10;;;;;;;16.27;94.33;101214.38;5005587;28;20124;-80
2022/05/25 07:03:25;;;;;;;1.02;0.88;;;;;;;16.48;94.18;101218.41;5009344;28;20166;-81
2022/05/25 07:05:51;;;;;;;1.80;1.00;;;;;;;16.56;93.41;101214.28;5011978;28;20036;-81
2022/05/25 07:08:17;;;;;;;1.48;1.20;;;;;;;16.60;90.57;101225.63;5013422;28;20276;-82
2022/05/25 07:10:45;;;;;;;3.70;1.30;;;;;;;16.63;89.24;101220.09;5014637;28;20162;-79
2022/05/25 07:13:15;;;;;;;1.30;1.17;;;;;;;16.72;90.73;101220.47;5034187;28;20060;-80
2022/05/25 07:15:42;;;;;;;2.35;1.30;;;;;;;16.80;89.08;101234.16;5016223;28;20403;-80
2022/05/25 07:18:11;;;;;;;2.20;1.33;;;;;;;16.65;85.71;101236.91;5014453;28;20052;-80
2022/05/25 07:20:37;;;;;;;1.88;1.40;;;;;;;16.40;86.11;101229.63;5016296;28;20077;-80
2022/05/25 07:23:03;;;;;;;1.83;1.30;;;;;;;16.15;86.36;101242.72;5033527;28;20097;-80
2022/05/25 07:25:29;;;;;;;2.03;1.40;;;;;;;15.93;86.68;101237.84;5011785;28;20548;-76
2022/05/25 07:27:54;;;;;;;1.83;1.50;;;;;;;15.91;89.00;101233.53;5033202;28;20033;-75
2022/05/25 07:30:20;;;;;;;1.45;1.30;;;;;;;15.83;86.71;101226.84;5030587;28;20586;-80
2022/05/25 07:32:46;;;;;;;2.28;1.38;;;;;;;15.65;85.73;101236.84;5011702;28;20049;-79
2022/05/25 07:35:14;;;;;;;1.50;1.40;;;;;;;15.45;85.66;101238.03;5030052;28;20104;-81
2022/05/25 07:37:43;;;;;;;3.00;1.30;;;;;;;15.29;86.82;101235.41;5032161;28;20033;-80
2022/05/25 07:40:18;;;;;;;1.75;1.38;;;;;;;15.34;89.08;101242.22;5028334;28;20094;-80
2022/05/25 07:42:46;;;;;;;2.33;1.73;;;;;;;15.40;88.19;101234.78;5027991;28;20047;-81
2022/05/25 07:45:12;;;;;;;2.10;1.50;;;;;;;15.36;85.69;101238.59;5032760;28;20037;-79
2022/05/25 07:47:37;;;;;;;4.53;2.10;;;;;;;15.43;87.63;101242.63;5035661;28;20776;-82
2022/05/25 07:50:04;;;;;;;2.97;1.83;;;;;;;15.74;88.80;101238.06;5036015;28;20044;-82
2022/05/25 07:52:33;;;;;;;2.00;1.40;;;;;;;15.85;82.09;101235.63;5035019;28;20037;-81
2022/05/25 07:54:58;;;;;;;3.00;1.30;;;;;;;15.81;85.67;101244.78;5034882;28;20099;-81
2022/05/25 07:57:24;;;;;;;1.60;1.50;;;;;;;15.68;83.84;101223.31;5034847;28;20431;-78
2022/05/25 07:59:49;;;;;;;2.42;1.50;;;;;;;15.60;86.30;101237.09;5016776;28;20116;-80
2022/05/25 08:07:47;;;;;;;4.22;1.50;;;;;;;15.74;87.86;101243.41;5032652;28;20124;-80
2022/05/25 08:10:16;;;;;;;4.63;1.60;;;;;;;15.77;86.17;101231.69;5008736;28;20365;-79
2022/05/25 08:12:42;;;;;;;2.40;1.65;;;;;;;15.77;86.02;101239.69;5033050;28;20632;-80
2022/05/25 08:15:09;;;;;;;3.38;2.08;;;;;;;15.85;88.14;101246.28;5016995;28;20039;-81
2022/05/25 08:17:35;;;;;;;3.90;2.08;;;;;;;15.99;89.21;101247.28;5015105;28;20049;-80
2022/05/25 08:20:02;;;;;;;3.03;2.75;;;;;;;16.02;86.65;101247.09;5035564;28;20043;-80
2022/05/25 08:22:28;;;;;;;3.20;2.67;;;;;;;15.97;87.78;101250.03;5016431;28;20025;-80
2022/05/25 08:24:53;;;;;;;2.65;2.45;;;;;;;15.97;87.97;101243.84;5034035;28;20373;-80
2022/05/25 08:27:19;;;;;;;4.40;2.75;;;;;;;16.04;88.75;101253.19;5015836;28;20033;-80
2022/05/25 08:29:44;;;;;;;4.50;3.40;;;;;;;16.08;87.42;101257.38;5034135;28;20996;-80
2022/05/25 08:32:10;;;;;;;3.90;3.50;;;;;;;16.08;88.13;101249.38;5032818;28;20032;-80
2022/05/25 08:34:36;;;;;;;6.57;4.05;;;;;;;16.12;89.52;101256.25;5033518;28;20085;-80
2022/05/25 08:37:02;;;;;;;5.88;3.78;;;;;;;16.13;88.54;101257.13;5015947;28;20025;-80
2022/05/25 08:39:28;;;;;;;4.90;3.38;;;;;;;16.11;88.16;101256.34;5032218;28;20037;-80
2022/05/25 08:41:55;;;;;;;5.30;3.70;;;;;;;16.14;88.58;101254.31;5015741;28;20681;-80
2022/05/25 08:44:23;;;;;;;5.95;3.80;;;;;;;16.28;89.70;101257.94;5015895;28;20041;-80
2022/05/25 08:46:55;;;;;;;3.65;3.35;;;;;;;16.53;90.37;101254.59;5030793;28;20344;-81
2022/05/25 08:49:22;;;;;;;4.97;4.15;;;;;;;16.86;90.24;101256.97;5008172;28;20039;-80
2022/05/25 08:51:57;;;;;;;5.47;3.78;;;;;;;17.11;88.84;101256.25;5007785;28;20041;-80
2022/05/25 08:54:25;;;;;;;4.25;3.85;;;;;;;17.28;85.84;101256.94;5015906;28;20098;-79
2022/05/25 08:57:10;;;;;;;4.80;4.38;;;;;;;17.03;80.31;101258.56;5006777;28;20029;-78
2022/05/25 08:59:50;;;;;;;5.80;4.43;;;;;;;16.91;85.06;101260.19;5015358;28;20036;-81
2022/05/25 09:02:28;;;;;;;7.88;5.25;;;;;;;16.83;85.57;101258.88;4999349;28;20595;-78
2022/05/25 09:05:01;;;;;;;6.53;4.03;;;;;;;16.69;86.55;101251.75;5032502;28;20278;-76
2022/05/25 09:07:35;;;;;;;6.95;4.90;;;;;;;16.58;84.18;101258.75;5031115;28;20033;-80
2022/05/25 09:10:01;;;;;;;7.15;5.60;;;;;;;16.43;86.83;101253.44;5033784;28;20044;-80
2022/05/25 09:12:41;;;;;;;6.68;5.00;;;;;;;16.33;85.92;101261.19;5033256;28;20029;-80
2022/05/25 09:15:12;;;;;;;7.18;5.18;;;;;;;16.32;86.26;101253.25;5034572;28;21759;-80
2022/05/25 09:17:43;;;;;;;7.60;5.72;;;;;;;16.44;87.46;101249.81;5005919;28;20059;-81
2022/05/25 09:20:13;;;;;;;6.95;4.90;;;;;;;16.55;87.53;101249.13;5016508;28;20053;-82
2022/05/25 09:22:41;;;;;;;5.80;4.95;;;;;;;16.72;86.88;101253.38;5008737;28;20029;-81
2022/05/25 09:25:09;;;;;;;5.15;4.65;;;;;;;16.86;84.60;101265.84;5032089;28;20044;-79
2022/05/25 09:28:16;;;;;;;7.45;6.28;;;;;;;16.94;83.54;101255.50;5030108;28;20036;-81
2022/05/25 09:30:43;;;;;;;7.30;5.60;;;;;;;16.98;84.88;101253.47;5010589;28;20486;-80
2022/05/25 09:33:15;;;;;;;7.10;5.60;;;;;;;16.79;84.07;101248.50;4997725;28;20036;-81
2022/05/25 09:35:44;;;;;;;7.23;5.80;;;;;;;16.61;84.95;101254.06;5012254;28;20584;-81
2022/05/25 09:38:16;;;;;;;8.07;6.78;;;;;;;16.41;85.07;101253.53;5003266;28;20310;-80
2022/05/25 09:40:49;;;;;;;9.23;7.22;;;;;;;16.24;86.02;101251.09;5007992;28;20056;-82
2022/05/25 09:43:21;;;;;;;9.90;6.65;;;;;;;16.10;86.92;101255.50;5009245;28;20033;-81
2022/05/25 09:45:52;;;;;;;6.50;5.30;;;;;;;16.00;85.60;101267.69;5011164;28;20088;-80
2022/05/25 09:48:24;;;;;;;7.43;5.40;;;;;;;15.89;86.00;101265.66;4997704;28;20025;-81
2022/05/25 09:51:01;;;;;;;7.45;6.32;;;;;;;15.88;86.72;101251.47;5032011;28;20040;-80
2022/05/25 09:53:36;;;;;;;6.22;4.78;;;;;;;15.89;85.66;101250.50;5032074;28;20591;-80
2022/05/25 09:56:11;;;;;;;5.88;5.18;;;;;;;15.86;85.13;101250.66;5014529;28;20102;-82
2022/05/25 09:58:40;;;;;;;4.60;4.07;;;;;;;15.83;85.27;101255.34;5031576;28;20123;-81
2022/05/25 10:01:31;;;;;;;4.82;3.70;;;;;;;15.73;84.19;101263.94;5006535;28;20115;-78
2022/05/25 10:03:58;;;;;;;8.60;5.93;;;;;;;15.54;85.42;101280.19;5019922;28;20044;-80
2022/05/25 10:06:48;;;;;;;7.72;6.65;;;;;;;15.27;86.38;101286.22;5031285;28;20024;-80
2022/05/25 10:09:17;;;;;;;7.45;4.90;;;;;;;14.76;90.71;101321.09;5016078;28;20029;-76
2022/05/25 10:11:46;;;;;;;4.07;2.60;;;;;;;13.65;90.58;101305.56;5034070;28;20040;-78
2022/05/25 10:14:35;;;;;;;1.70;1.60;;;;;;;12.55;93.05;101321.44;5032800;28;20484;-74
2022/05/25 10:17:07;;;;;;;2.28;2.08;;;;;;;11.94;95.14;101305.53;4985974;28;20289;-76
2022/05/25 10:19:37;;;;;;;3.97;2.95;;;;;;;11.64;98.52;101305.91;5026672;28;20045;-76
2022/05/25 10:22:03;;;;;;;7.05;4.32;;;;;;;11.46;100.00;101287.22;5013027;28;20500;-77
2022/05/25 10:24:41;;;;;;;7.97;5.57;;;;;;;11.44;100.00;101275.81;5029547;28;20049;-78
2022/05/25 10:27:24;;;;;;;10.52;6.55;;;;;;;11.50;100.00;101272.91;5017593;28;20037;-78
2022/05/25 10:38:11;;;;;;;9.35;6.40;;;;;;;11.64;100.00;101290.88;5026581;28;20459;-76
2022/05/25 10:40:36;;;;;;;11.45;8.15;;;;;;;11.61;100.00;101279.53;5011822;28;20037;-81
2022/05/25 10:43:02;;;;;;;15.45;9.15;;;;;;;11.78;100.00;101281.47;4990703;28;20056;-77
2022/05/25 10:45:34;;;;;;;18.25;11.82;;;;;;;12.04;100.00;101264.41;5009521;28;20613;-78
2022/05/25 10:48:07;;;;;;;25.95;15.20;;;;;;;12.32;100.00;101268.47;5009238;28;20037;-78
2022/05/25 10:50:48;;;;;;;23.75;14.48;;;;;;;12.52;100.00;101257.88;5009302;28;20037;-76
2022/05/25 10:53:33;;;;;;;23.67;14.18;;;;;;;12.65;100.00;101259.00;5010266;28;20040;-78
2022/05/25 10:56:04;;;;;;;23.13;13.82;;;;;;;12.72;100.00;101256.91;5012247;28;20095;-77
2022/05/25 10:58:56;;;;;;;22.02;13.15;;;;;;;12.89;100.00;101250.78;5012776;28;20419;-77
2022/05/25 11:02:03;;;;;;;22.58;13.25;;;;;;;13.26;100.00;101258.72;4991922;28;20151;-79
2022/05/25 11:05:09;;;;;;;14.82;8.75;;;;;;;13.52;100.00;101240.63;4911628;29;20490;-78
2022/05/25 11:07:35;;;;;;;3.97;2.95;;;;;;;13.77;100.00;101240.19;4995130;28;20029;-77
2022/05/25 11:10:09;;;;;;;3.58;2.22;;;;;;;14.03;100.00;101237.09;5012536;28;20037;-76
2022/05/25 11:12:42;;;;;;;3.58;1.83;;;;;;;14.11;100.00;101240.22;5027448;28;20156;-78
2022/05/25 11:15:16;;;;;;;1.63;1.10;;;;;;;14.07;94.52;101246.63;5014509;28;20045;-77
2022/05/25 11:18:01;;;;;;;2.15;1.38;;;;;;;14.09;91.42;101250.06;5028726;28;20049;-79
2022/05/25 11:20:46;;;;;;;1.00;0.90;;;;;;;14.11;89.04;101253.53;5014165;28;20045;-78
2022/05/25 11:23:40;;;;;;;1.20;0.90;;;;;;;14.14;86.05;101261.34;5011489;28;20041;-78
2022/05/25 11:26:28;;;;;;;1.10;0.90;;;;;;;14.19;88.05;101259.28;5032980;28;20413;-79
2022/05/25 11:29:45;;;;;;;1.48;0.90;;;;;;;14.35;88.94;101250.44;5032424;28;20263;-78
2022/05/25 11:32:29;;;;;;;0.80;0.80;;;;;;;14.50;88.16;101252.25;5005868;28;20041;-76
2022/05/25 11:35:14;;;;;;;2.38;0.85;;;;;;;14.62;86.27;101257.84;5016590;28;20287;-74
2022/05/25 11:38:11;;;;;;;0.82;0.70;;;;;;;14.66;83.36;101246.94;5018218;28;20173;-75
2022/05/25 11:40:49;;;;;;;0.70;0.70;;;;;;;14.68;84.09;101254.84;5025021;28;20120;-74
2022/05/25 11:43:33;;;;;;;0.63;0.63;;;;;;;14.69;77.86;101253.91;5031150;28;20033;-76
2022/05/25 11:46:11;;;;;;;2.53;1.02;;;;;;;14.70;77.40;101258.28;5030910;28;20041;-74
2022/05/25 11:48:56;;;;;;;1.95;0.70;;;;;;;14.75;80.01;101263.38;5029619;28;20108;-74
2022/05/25 11:51:37;;;;;;;2.15;0.70;;;;;;;14.72;78.90;101268.88;5013275;28;20049;-75
2022/05/25 11:54:14;;;;;;;1.17;0.68;;;;;;;14.70;76.17;101263.59;5015610;28;20132;-76
2022/05/25 11:57:07;;;;;;;1.23;0.60;;;;;;;14.75;74.92;101271.38;5015235;28;20482;-75
2022/05/25 11:59:46;;;;;;;0.73;0.70;;;;;;;14.82;74.46;101266.56;5015955;28;20547;-76
2022/05/25 12:02:37;;;;;;;1.17;0.88;;;;;;;14.89;75.78;101275.94;5012920;28;20052;-75
2022/05/25 12:05:23;;;;;;;0.73;0.60;;;;;;;14.93;73.83;101277.50;5013794;28;20127;-75
2022/05/25 12:08:07;;;;;;;1.00;0.65;;;;;;;14.92;72.43;101279.28;5013708;28;20029;-76